createdAt,value
2022-09-21T00:00:14.697Z,18.61
2022-09-21T00:02:37.932Z,18.73
2022-09-21T00:05:02.458Z,18.91
2022-09-21T00:07:25.760Z,18.78
2022-09-21T00:09:49.292Z,18.48
2022-09-21T00:12:12.596Z,18.46
2022-09-21T00:14:35.746Z,18.44
2022-09-21T00:16:59.005Z,18.41
2022-09-21T00:19:22.154Z,18.36
2022-09-21T00:21:46.675Z,18.49
2022-09-21T00:24:09.812Z,18.37
2022-09-21T00:26:33.121Z,18.19
2022-09-21T00:28:57.467Z,18.30
2022-09-21T00:31:20.710Z,18.42
2022-09-21T00:33:44.601Z,18.57
2022-09-21T00:36:08.859Z,18.37
2022-09-21T00:38:33.453Z,18.72
2022-09-21T00:40:56.637Z,18.44
2022-09-21T00:43:19.791Z,18.34
2022-09-21T00:45:43.418Z,18.53
2022-09-21T00:48:06.769Z,18.47
2022-09-21T00:50:29.948Z,18.33
2022-09-21T00:52:54.390Z,17.92
2022-09-21T00:55:21.062Z,17.89
2022-09-21T00:57:44.210Z,17.62
2022-09-21T01:00:09.635Z,17.46
2022-09-21T01:02:33.161Z,17.44
2022-09-21T01:04:56.422Z,17.66
2022-09-21T01:07:20.817Z,17.72
2022-09-21T01:09:43.884Z,18.01
2022-09-21T01:12:15.453Z,18.13
2022-09-21T01:14:47.074Z,17.94
2022-09-21T01:17:12.452Z,17.74
2022-09-21T01:20:08.440Z,17.52
2022-09-21T01:22:38.082Z,17.49
2022-09-21T01:25:06.565Z,17.39
2022-09-21T01:27:50.265Z,17.58
2022-09-21T01:30:14.921Z,17.79
2022-09-21T01:32:38.310Z,17.84
2022-09-21T01:35:03.170Z,17.69
2022-09-21T01:37:30.133Z,17.75
2022-09-21T01:40:03.153Z,17.98
2022-09-21T01:42:26.321Z,17.84
2022-09-21T01:44:49.581Z,17.79
2022-09-21T01:47:14.141Z,17.63
2022-09-21T01:49:37.493Z,17.64
2022-09-21T01:52:02.023Z,17.64
2022-09-21T01:54:25.521Z,17.56
2022-09-21T01:56:51.979Z,17.56
2022-09-21T01:59:18.104Z,17.41
2022-09-21T02:01:43.808Z,17.34
2022-09-21T02:04:10.526Z,17.33
2022-09-21T02:06:33.644Z,17.30
2022-09-21T02:08:56.853Z,17.42
2022-09-21T02:11:20.067Z,17.16
2022-09-21T02:13:44.622Z,17.18
2022-09-21T02:16:21.319Z,17.33
2022-09-21T02:18:49.630Z,17.52
2022-09-21T02:21:18.874Z,17.47
2022-09-21T02:23:44.048Z,17.28
2022-09-21T02:26:08.485Z,17.28
2022-09-21T02:28:35.935Z,17.28
2022-09-21T02:31:02.984Z,17.55
2022-09-21T02:33:27.829Z,17.51
2022-09-21T02:35:52.132Z,17.77
2022-09-21T02:38:21.188Z,17.81
2022-09-21T02:40:45.549Z,17.83
2022-09-21T02:43:12.002Z,18.04
2022-09-21T02:45:38.093Z,18.03
2022-09-21T02:48:01.846Z,17.70
2022-09-21T02:50:27.124Z,17.68
2022-09-21T02:52:50.406Z,17.65
2022-09-21T02:55:15.104Z,17.53
2022-09-21T02:57:38.301Z,17.83
2022-09-21T03:00:01.563Z,17.71
2022-09-21T03:02:24.753Z,17.65
2022-09-21T03:04:48.623Z,17.54
2022-09-21T03:07:11.853Z,17.57
2022-09-21T03:09:34.976Z,17.40
2022-09-21T03:11:59.662Z,17.60
2022-09-21T03:14:22.996Z,17.59
2022-09-21T03:16:46.314Z,17.74
2022-09-21T03:19:09.461Z,17.56
2022-09-21T03:21:32.677Z,17.31
2022-09-21T03:23:55.917Z,17.38
2022-09-21T03:26:22.336Z,17.44
2022-09-21T03:28:46.887Z,17.37
2022-09-21T03:31:10.178Z,17.18
2022-09-21T03:33:33.384Z,17.10
2022-09-21T03:35:56.485Z,17.17
2022-09-21T03:38:19.736Z,17.02
2022-09-21T03:40:45.685Z,16.89
2022-09-21T03:43:08.818Z,16.85
2022-09-21T03:45:33.388Z,16.69
2022-09-21T03:47:57.286Z,16.78
2022-09-21T03:50:20.665Z,16.72
2022-09-21T03:52:43.892Z,16.80
2022-09-21T03:55:07.497Z,16.71
2022-09-21T03:57:30.628Z,16.70
2022-09-21T03:59:54.228Z,16.74
2022-09-21T04:02:18.824Z,16.98
2022-09-21T04:04:42.026Z,16.94
2022-09-21T04:07:05.527Z,16.95
2022-09-21T04:09:28.674Z,16.86
2022-09-21T04:11:53.903Z,16.72
2022-09-21T04:14:17.691Z,17.01
2022-09-21T04:16:40.915Z,16.78
2022-09-21T04:19:05.866Z,16.88
2022-09-21T04:21:29.330Z,17.00
2022-09-21T04:23:52.477Z,16.80
2022-09-21T04:26:23.080Z,16.73
2022-09-21T04:28:46.380Z,16.72
2022-09-21T04:31:09.602Z,16.72
2022-09-21T04:33:32.801Z,16.68
2022-09-21T04:35:57.710Z,16.64
2022-09-21T04:38:20.929Z,16.64
2022-09-21T04:40:44.143Z,16.54
2022-09-21T04:43:07.333Z,16.46
2022-09-21T04:45:31.196Z,16.43
2022-09-21T04:47:54.377Z,16.37
2022-09-21T04:50:17.601Z,16.33
2022-09-21T04:52:44.320Z,16.52
2022-09-21T04:55:07.534Z,16.45
2022-09-21T04:57:30.702Z,16.67
2022-09-21T04:59:53.922Z,16.76
2022-09-21T05:02:17.050Z,16.95
2022-09-21T05:04:40.284Z,16.95
2022-09-21T05:07:03.430Z,17.13
2022-09-21T05:09:45.314Z,17.22
2022-09-21T05:12:09.549Z,17.12
2022-09-21T05:14:32.694Z,17.32
2022-09-21T05:16:55.916Z,17.26
2022-09-21T05:19:19.148Z,17.26
2022-09-21T05:21:42.265Z,17.14
2022-09-21T05:24:05.890Z,16.92
2022-09-21T05:26:30.429Z,16.64
2022-09-21T05:28:54.349Z,16.68
2022-09-21T05:31:36.836Z,16.72
2022-09-21T05:34:04.143Z,16.66
2022-09-21T05:36:33.665Z,16.93
2022-09-21T05:38:57.497Z,16.86
2022-09-21T05:41:21.162Z,16.87
2022-09-21T05:43:46.593Z,16.81
2022-09-21T05:46:12.778Z,16.85
2022-09-21T05:48:38.619Z,16.79
2022-09-21T05:51:03.329Z,16.95
2022-09-21T05:53:42.223Z,17.19
2022-09-21T05:56:07.112Z,17.43
2022-09-21T05:58:34.645Z,17.52
2022-09-21T06:01:05.551Z,17.25
2022-09-21T06:03:30.166Z,16.99
2022-09-21T06:05:53.113Z,17.01
2022-09-21T06:08:16.360Z,17.16
2022-09-21T06:10:39.503Z,17.23
2022-09-21T06:13:02.748Z,17.34
2022-09-21T06:15:25.888Z,17.32
2022-09-21T06:17:50.410Z,17.70
2022-09-21T06:20:13.410Z,17.76
2022-09-21T06:22:36.592Z,17.72
2022-09-21T06:24:59.857Z,17.70
2022-09-21T06:27:23.021Z,17.86
2022-09-21T06:29:46.195Z,18.06
2022-09-21T06:32:09.363Z,18.02
2022-09-21T06:34:33.939Z,17.86
2022-09-21T06:36:56.838Z,17.75
2022-09-21T06:39:20.097Z,17.77
2022-09-21T06:41:43.230Z,17.81
2022-09-21T06:44:06.788Z,17.85
2022-09-21T06:46:29.967Z,17.99
2022-09-21T06:48:53.109Z,17.89
2022-09-21T06:51:17.749Z,17.82
2022-09-21T06:53:40.712Z,17.94
2022-09-21T06:56:04.258Z,17.94
2022-09-21T06:58:27.408Z,18.09
2022-09-21T07:00:50.766Z,18.24
2022-09-21T07:03:14.210Z,18.22
2022-09-21T07:05:52.698Z,18.22
2022-09-21T07:11:00.688Z,18.44
2022-09-21T07:13:23.957Z,18.50
2022-09-21T07:15:50.267Z,18.42
2022-09-21T07:18:16.425Z,18.51
2022-09-21T07:20:40.193Z,18.50
2022-09-21T07:23:11.011Z,18.48
2022-09-21T07:25:35.611Z,18.59
2022-09-21T07:28:01.142Z,18.54
2022-09-21T07:30:24.416Z,18.65
2022-09-21T07:32:47.596Z,18.68
2022-09-21T07:35:12.049Z,18.64
2022-09-21T07:37:35.208Z,18.70
2022-09-21T07:39:58.392Z,18.72
2022-09-21T07:42:24.167Z,18.80
2022-09-21T07:44:47.761Z,18.77
2022-09-21T07:47:12.702Z,18.85
2022-09-21T07:49:36.284Z,18.64
2022-09-21T07:52:03.862Z,18.67
2022-09-21T07:54:28.163Z,18.76
2022-09-21T07:57:05.273Z,18.81
2022-09-21T07:59:32.473Z,18.87
2022-09-21T08:01:55.766Z,18.99
2022-09-21T08:04:19.139Z,19.01
2022-09-21T08:06:42.404Z,18.98
2022-09-21T08:09:05.810Z,18.86
2022-09-21T08:11:30.259Z,18.95
2022-09-21T08:13:54.217Z,18.97
2022-09-21T08:16:18.774Z,19.02
2022-09-21T08:18:41.993Z,18.99
2022-09-21T08:21:05.237Z,18.99
2022-09-21T08:23:29.119Z,18.86
2022-09-21T08:25:52.320Z,18.95
2022-09-21T08:28:16.470Z,19.03
2022-09-21T08:30:39.645Z,19.08
2022-09-21T08:33:04.257Z,19.08
2022-09-21T08:35:27.180Z,19.16
2022-09-21T08:37:51.616Z,19.08
2022-09-21T08:40:16.905Z,19.02
2022-09-21T08:42:41.450Z,19.06
2022-09-21T08:45:07.649Z,19.22
2022-09-21T08:47:36.762Z,19.17
2022-09-21T08:50:01.325Z,19.06
2022-09-21T08:52:24.964Z,19.10
2022-09-21T08:54:50.163Z,19.06
2022-09-21T08:57:13.698Z,19.11
2022-09-21T08:59:36.870Z,19.21
2022-09-21T09:02:03.456Z,19.26
2022-09-21T09:04:30.914Z,19.34
2022-09-21T09:07:01.462Z,19.29
2022-09-21T09:09:41.696Z,19.37
2022-09-21T09:12:16.500Z,19.22
2022-09-21T09:15:03.694Z,19.25
2022-09-21T09:17:37.562Z,19.20
2022-09-21T09:20:02.764Z,19.15
2022-09-21T09:22:29.115Z,19.21
2022-09-21T09:24:53.089Z,19.34
2022-09-21T09:27:18.284Z,19.41
2022-09-21T09:29:45.476Z,19.42
2022-09-21T09:32:10.984Z,19.42
2022-09-21T09:34:35.519Z,19.48
2022-09-21T09:36:59.873Z,19.50
2022-09-21T09:39:24.695Z,19.54
2022-09-21T09:42:03.316Z,19.60
2022-09-21T09:44:34.049Z,19.54
2022-09-21T09:47:01.768Z,19.66
2022-09-21T09:49:31.437Z,19.66
2022-09-21T09:51:54.631Z,19.70
2022-09-21T09:54:19.028Z,19.73
2022-09-21T09:56:43.611Z,19.78
2022-09-21T09:59:08.305Z,19.81
2022-09-21T10:01:39.084Z,19.83
2022-09-21T10:04:06.667Z,19.88
2022-09-21T10:06:32.435Z,19.90
2022-09-21T10:08:55.690Z,19.94
2022-09-21T10:11:18.871Z,19.98
2022-09-21T10:13:44.070Z,20.00
2022-09-21T10:16:15.542Z,20.04
2022-09-21T10:18:39.730Z,20.04
2022-09-21T10:21:04.298Z,20.05
2022-09-21T10:23:29.025Z,20.05
2022-09-21T10:26:02.986Z,20.06
2022-09-21T10:28:26.208Z,20.08
2022-09-21T10:30:50.787Z,20.08
2022-09-21T10:33:20.693Z,20.10
2022-09-21T10:35:50.062Z,20.11
2022-09-21T10:38:21.973Z,20.13
2022-09-21T10:40:45.967Z,20.12
2022-09-21T10:43:24.171Z,20.14
2022-09-21T10:45:54.837Z,20.16
2022-09-21T10:48:18.476Z,20.16
2022-09-21T10:50:42.530Z,20.17
2022-09-21T10:53:13.339Z,20.18
2022-09-21T10:55:44.099Z,20.17
2022-09-21T10:58:16.219Z,20.20
2022-09-21T11:00:42.854Z,20.21
2022-09-21T11:03:41.688Z,20.21
2022-09-21T11:06:06.526Z,20.22
2022-09-21T11:08:31.692Z,20.22
2022-09-21T11:11:07.049Z,20.23
2022-09-21T11:13:32.459Z,20.12
2022-09-21T11:15:56.796Z,20.22
2022-09-21T11:18:21.469Z,20.23
2022-09-21T11:20:48.441Z,20.24
2022-09-21T11:23:18.223Z,20.25
2022-09-21T11:25:44.151Z,20.24
2022-09-21T11:28:14.741Z,20.21
2022-09-21T11:30:48.639Z,20.25
2022-09-21T11:33:20.350Z,20.19
2022-09-21T11:35:54.294Z,20.25
2022-09-21T11:38:23.752Z,20.21
2022-09-21T11:40:57.699Z,20.23
2022-09-21T11:43:29.193Z,20.24
2022-09-21T11:45:59.604Z,20.24
2022-09-21T11:48:25.999Z,20.25
2022-09-21T11:50:59.853Z,20.26
2022-09-21T11:53:43.919Z,20.27
2022-09-21T11:56:24.026Z,20.27
2022-09-21T11:58:53.009Z,20.24
2022-09-21T12:01:26.118Z,20.06
2022-09-21T12:03:54.945Z,19.89
2022-09-21T12:06:25.226Z,19.61
2022-09-21T12:09:04.241Z,19.67
2022-09-21T12:11:33.443Z,19.74
2022-09-21T12:14:01.198Z,19.83
2022-09-21T12:16:27.611Z,19.87
2022-09-21T12:18:53.927Z,19.95
2022-09-21T12:21:19.614Z,19.87
2022-09-21T12:23:45.041Z,19.83
2022-09-21T12:26:08.421Z,19.77
2022-09-21T12:28:32.658Z,19.67
2022-09-21T12:31:00.690Z,19.59
2022-09-21T12:33:27.692Z,19.76
2022-09-21T12:38:23.828Z,19.97
2022-09-21T12:40:52.386Z,20.04
2022-09-21T12:43:21.496Z,20.06
2022-09-21T12:45:47.002Z,20.09
2022-09-21T12:48:15.214Z,20.11
2022-09-21T12:50:40.885Z,20.12
2022-09-21T12:53:04.117Z,20.13
2022-09-21T12:55:36.286Z,20.12
2022-09-21T12:58:15.133Z,20.14
2022-09-21T13:00:42.434Z,20.15
2022-09-21T13:03:10.530Z,20.15
2022-09-21T13:05:37.725Z,20.16
2022-09-21T13:08:06.547Z,20.17
2022-09-21T13:10:41.546Z,20.17
2022-09-21T13:13:08.283Z,20.18
2022-09-21T13:15:33.034Z,20.19
2022-09-21T13:18:01.111Z,20.15
2022-09-21T13:20:24.280Z,20.15
2022-09-21T13:22:48.827Z,20.19
2022-09-21T13:25:20.246Z,20.21
2022-09-21T13:28:00.632Z,20.13
2022-09-21T13:30:33.107Z,20.18
2022-09-21T13:32:56.357Z,20.21
2022-09-21T13:35:52.370Z,20.23
2022-09-21T13:38:25.693Z,20.22
2022-09-21T13:40:58.623Z,20.21
2022-09-21T13:43:26.038Z,20.20
2022-09-21T13:45:58.220Z,20.14
2022-09-21T13:48:25.159Z,20.21
2022-09-21T13:50:49.032Z,20.22
2022-09-21T13:53:19.238Z,20.20
2022-09-21T13:55:43.105Z,20.23
2022-09-21T13:58:07.280Z,20.24
2022-09-21T14:00:40.549Z,20.24
2022-09-21T14:03:07.620Z,20.22
2022-09-21T14:05:34.349Z,19.71
2022-09-21T14:07:57.819Z,19.67
2022-09-21T14:10:21.115Z,19.66
2022-09-21T14:12:45.527Z,19.60
2022-09-21T14:15:27.137Z,19.75
2022-09-21T14:20:39.763Z,19.72
2022-09-21T14:23:13.823Z,19.73
2022-09-21T14:25:51.148Z,19.75
2022-09-21T14:28:14.558Z,19.76
2022-09-21T14:30:37.798Z,19.66
2022-09-21T14:33:17.668Z,19.57
2022-09-21T14:35:44.889Z,19.53
2022-09-21T14:38:18.639Z,19.63
2022-09-21T14:40:42.392Z,19.61
2022-09-21T14:43:10.165Z,19.53
2022-09-21T14:45:47.957Z,19.53
2022-09-21T14:48:14.966Z,19.40
2022-09-21T14:50:42.722Z,19.21
2022-09-21T14:53:39.333Z,19.24
2022-09-21T14:56:31.757Z,19.07
2022-09-21T14:59:04.483Z,19.03
2022-09-21T15:01:37.385Z,19.03
2022-09-21T15:04:09.909Z,19.07
2022-09-21T15:06:53.130Z,19.10
2022-09-21T15:09:45.917Z,19.11
2022-09-21T15:12:11.557Z,19.16
2022-09-21T15:14:35.768Z,19.15
2022-09-21T15:16:58.952Z,18.97
2022-09-21T15:19:23.769Z,19.02
2022-09-21T15:21:49.038Z,18.98
2022-09-21T15:24:18.961Z,18.94
2022-09-21T15:26:43.673Z,18.88
2022-09-21T15:29:10.049Z,19.03
2022-09-21T15:31:33.737Z,19.22
2022-09-21T15:33:56.920Z,19.31
2022-09-21T15:36:25.190Z,19.42
2022-09-21T15:38:50.524Z,19.38
2022-09-21T15:41:14.104Z,19.28
2022-09-21T15:43:37.722Z,19.43
2022-09-21T15:46:02.456Z,19.50
2022-09-21T15:48:26.199Z,19.33
2022-09-21T15:50:53.837Z,19.25
2022-09-21T15:53:19.663Z,19.31
2022-09-21T15:55:47.364Z,19.27
2022-09-21T15:58:15.357Z,19.18
2022-09-21T16:00:40.130Z,19.01
2022-09-21T16:03:05.691Z,19.13
2022-09-21T16:05:29.691Z,19.03
2022-09-21T16:07:52.941Z,19.13
2022-09-21T16:10:37.717Z,18.98
2022-09-21T16:13:22.954Z,18.97
2022-09-21T16:15:45.145Z,18.91
2022-09-21T16:18:08.353Z,18.89
2022-09-21T16:20:45.758Z,18.77
2022-09-21T16:23:13.987Z,18.75
2022-09-21T16:25:37.697Z,18.83
2022-09-21T16:28:03.237Z,18.79
2022-09-21T16:30:46.245Z,18.79
2022-09-21T16:33:38.737Z,18.97
2022-09-21T16:36:04.478Z,19.16
2022-09-21T16:38:27.592Z,19.36
2022-09-21T16:40:54.060Z,19.48
2022-09-21T16:43:20.396Z,19.56
2022-09-21T16:45:43.889Z,19.53
2022-09-21T16:48:07.906Z,19.57
2022-09-21T16:50:31.033Z,19.46
2022-09-21T16:52:54.220Z,19.15
2022-09-21T16:55:17.374Z,19.20
2022-09-21T16:57:42.668Z,19.03
2022-09-21T17:00:11.756Z,19.02
2022-09-21T17:02:35.050Z,19.02
2022-09-21T17:04:58.193Z,18.95
2022-09-21T17:07:21.537Z,19.18
2022-09-21T17:09:47.764Z,19.02
2022-09-21T17:12:13.404Z,18.80
2022-09-21T17:14:39.292Z,18.74
2022-09-21T17:17:08.680Z,18.96
2022-09-21T17:19:31.997Z,18.98
2022-09-21T17:21:55.258Z,18.99
2022-09-21T17:24:38.945Z,19.02
2022-09-21T17:27:01.579Z,18.84
2022-09-21T17:29:26.920Z,18.95
2022-09-21T17:31:53.561Z,19.23
2022-09-21T17:34:18.181Z,19.23
2022-09-21T17:36:41.126Z,19.18
2022-09-21T17:39:05.686Z,19.05
2022-09-21T17:41:29.642Z,18.91
2022-09-21T17:43:58.924Z,18.86
2022-09-21T17:46:24.454Z,18.77
2022-09-21T17:48:48.213Z,18.66
2022-09-21T17:51:33.763Z,18.98
2022-09-21T17:53:56.496Z,19.27
2022-09-21T17:56:39.634Z,19.41
2022-09-21T17:59:03.407Z,19.11
2022-09-21T18:01:31.483Z,19.32
2022-09-21T18:03:55.144Z,19.27
2022-09-21T18:06:20.534Z,19.12
2022-09-21T18:08:44.322Z,19.10
2022-09-21T18:11:13.827Z,18.68
2022-09-21T18:13:41.364Z,18.83
2022-09-21T18:16:19.820Z,18.68
2022-09-21T18:18:45.283Z,19.06
2022-09-21T18:21:12.397Z,19.22
2022-09-21T18:23:42.533Z,19.27
2022-09-21T18:26:06.228Z,19.42
2022-09-21T18:28:40.108Z,19.33
2022-09-21T18:31:08.948Z,19.19
2022-09-21T18:33:39.888Z,18.65
2022-09-21T18:36:09.466Z,18.70
2022-09-21T18:38:33.211Z,18.70
2022-09-21T18:41:05.005Z,18.73
2022-09-21T18:43:32.831Z,18.70
2022-09-21T18:46:01.978Z,18.68
2022-09-21T18:48:35.094Z,18.71
2022-09-21T18:51:01.534Z,18.87
2022-09-21T18:53:28.893Z,18.87
2022-09-21T18:55:52.926Z,19.06
2022-09-21T18:58:18.143Z,19.21
2022-09-21T19:00:41.879Z,19.37
2022-09-21T19:03:17.685Z,19.10
2022-09-21T19:05:44.170Z,19.07
2022-09-21T19:08:11.497Z,19.16
2022-09-21T19:10:36.948Z,19.12
2022-09-21T19:13:23.223Z,19.34
2022-09-21T19:16:01.300Z,19.02
2022-09-21T19:18:28.188Z,18.98
2022-09-21T19:20:58.548Z,19.27
2022-09-21T19:23:30.105Z,19.06
2022-09-21T19:25:54.448Z,19.25
2022-09-21T19:28:31.585Z,18.72
2022-09-21T19:31:00.087Z,18.84
2022-09-21T19:33:48.941Z,19.13
2022-09-21T19:36:10.634Z,18.75
2022-09-21T19:38:34.360Z,18.58
2022-09-21T19:41:00.994Z,18.47
2022-09-21T19:43:30.350Z,18.38
2022-09-21T19:46:04.360Z,18.45
2022-09-21T19:48:28.741Z,18.45
2022-09-21T19:50:54.652Z,18.66
2022-09-21T19:53:35.681Z,18.67
2022-09-21T19:56:17.137Z,18.61
2022-09-21T19:58:59.797Z,18.59
2022-09-21T20:01:23.131Z,18.44
2022-09-21T20:03:47.163Z,18.29
2022-09-21T20:06:12.002Z,18.31
2022-09-21T20:08:37.431Z,18.19
2022-09-21T20:11:07.895Z,18.35
2022-09-21T20:13:39.321Z,18.48
2022-09-21T20:16:15.786Z,18.49
2022-09-21T20:18:43.410Z,18.52
2022-09-21T20:21:10.698Z,18.76
2022-09-21T20:23:36.198Z,18.66
2022-09-21T20:26:03.011Z,18.50
2022-09-21T20:28:26.882Z,18.42
2022-09-21T20:30:50.357Z,18.80
2022-09-21T20:33:16.149Z,19.06
2022-09-21T20:35:39.407Z,19.08
2022-09-21T20:38:03.334Z,18.89
2022-09-21T20:40:28.780Z,18.67
2022-09-21T20:42:52.416Z,18.61
2022-09-21T20:45:16.811Z,18.94
2022-09-21T20:47:39.995Z,19.17
2022-09-21T20:50:04.948Z,19.30
2022-09-21T20:52:28.163Z,19.28
2022-09-21T20:54:51.433Z,18.68
2022-09-21T20:57:14.570Z,18.42
2022-09-21T20:59:37.784Z,18.41
2022-09-21T21:02:01.050Z,18.26
2022-09-21T21:04:24.321Z,18.36
2022-09-21T21:06:49.189Z,18.13
2022-09-21T21:09:12.345Z,18.10
2022-09-21T21:11:36.519Z,18.27
2022-09-21T21:13:59.679Z,18.54
2022-09-21T21:16:23.010Z,18.65
2022-09-21T21:18:46.182Z,18.69
2022-09-21T21:21:09.431Z,18.84
2022-09-21T21:23:53.943Z,18.98
2022-09-21T21:26:17.152Z,18.94
2022-09-21T21:28:40.290Z,18.77
2022-09-21T21:31:03.597Z,18.60
2022-09-21T21:33:26.732Z,18.27
2022-09-21T21:35:51.391Z,18.05
2022-09-21T21:38:14.587Z,17.89
2022-09-21T21:40:39.214Z,17.77
2022-09-21T21:43:03.486Z,17.68
2022-09-21T21:45:26.694Z,17.68
2022-09-21T21:47:49.837Z,17.61
2022-09-21T21:50:12.997Z,17.60
2022-09-21T21:52:36.228Z,17.48
2022-09-21T21:54:59.344Z,17.57
2022-09-21T21:57:23.956Z,17.39
2022-09-21T21:59:46.864Z,17.26
2022-09-21T22:02:10.172Z,17.20
2022-09-21T22:04:33.417Z,17.14
2022-09-21T22:06:56.593Z,17.29
2022-09-21T22:09:22.191Z,17.16
2022-09-21T22:11:45.468Z,17.14
2022-09-21T22:14:11.653Z,16.92
2022-09-21T22:16:35.704Z,16.88
2022-09-21T22:18:59.101Z,16.92
2022-09-21T22:21:23.099Z,16.96
2022-09-21T22:23:46.253Z,17.04
2022-09-21T22:26:11.533Z,17.19
2022-09-21T22:28:34.710Z,17.07
2022-09-21T22:30:59.405Z,17.04
2022-09-21T22:33:22.639Z,16.89
2022-09-21T22:35:45.810Z,16.95
2022-09-21T22:38:11.930Z,16.95
2022-09-21T22:40:35.173Z,16.85
2022-09-21T22:42:58.399Z,16.82
2022-09-21T22:45:21.602Z,16.95
2022-09-21T22:47:46.759Z,16.92
2022-09-21T22:50:10.526Z,16.84
2022-09-21T22:52:33.715Z,16.78
2022-09-21T22:54:56.939Z,16.39
2022-09-21T22:57:20.128Z,16.70
2022-09-21T22:59:43.321Z,16.83
2022-09-21T23:02:11.652Z,16.61
2022-09-21T23:04:36.304Z,16.64
2022-09-21T23:06:59.290Z,16.62
2022-09-21T23:09:22.565Z,16.48
2022-09-21T23:11:47.581Z,16.62
2022-09-21T23:14:11.781Z,16.78
2022-09-21T23:16:35.179Z,16.77
2022-09-21T23:18:58.673Z,16.91
2022-09-21T23:21:24.133Z,17.27
2022-09-21T23:23:47.472Z,17.47
2022-09-21T23:26:12.381Z,17.67
2022-09-21T23:28:35.854Z,17.69
2022-09-21T23:31:00.270Z,17.64
2022-09-21T23:33:23.385Z,17.48
2022-09-21T23:35:46.502Z,17.72
2022-09-21T23:38:10.999Z,17.88
2022-09-21T23:40:33.950Z,17.63
2022-09-21T23:42:57.082Z,17.43
2022-09-21T23:45:20.276Z,17.64
2022-09-21T23:47:43.538Z,17.62
2022-09-21T23:50:07.658Z,17.72
2022-09-21T23:52:31.239Z,17.74
2022-09-21T23:54:55.837Z,17.60
2022-09-21T23:57:18.786Z,17.50
2022-09-21T23:59:42.182Z,17.38
